createdAt,value
2018-04-18T00:00:22.300Z,99148.56
2018-04-18T00:00:53.878Z,99149.44
2018-04-18T00:01:25.520Z,99150.30
2018-04-18T00:01:57.078Z,99148.13
2018-04-18T00:02:28.714Z,99147.28
2018-04-18T00:03:00.322Z,99153.70
2018-04-18T00:03:31.892Z,99147.73
2018-04-18T00:04:03.519Z,99150.31
2018-04-18T00:04:35.102Z,99147.77
2018-04-18T00:05:06.718Z,99150.30
2018-04-18T00:05:38.319Z,99152.00
2018-04-18T00:06:09.913Z,99144.34
2018-04-18T00:06:41.499Z,99149.03
2018-04-18T00:07:13.081Z,99154.99
2018-04-18T00:07:44.662Z,99146.48
2018-04-18T00:08:16.269Z,99147.75
2018-04-18T00:08:47.895Z,99142.22
2018-04-18T00:09:19.464Z,99151.16
2018-04-18T00:09:51.043Z,99154.59
2018-04-18T00:10:22.617Z,99147.31
2018-04-18T00:10:54.221Z,99151.59
2018-04-18T00:11:25.810Z,99154.13
2018-04-18T00:11:57.386Z,99158.81
2018-04-18T00:12:29.010Z,99151.13
2018-04-18T00:13:00.594Z,99149.01
2018-04-18T00:13:32.194Z,99153.69
2018-04-18T00:14:03.802Z,99148.58
2018-04-18T00:14:35.386Z,99154.14
2018-04-18T00:15:06.993Z,99155.42
2018-04-18T00:15:38.575Z,99155.00
2018-04-18T00:16:10.198Z,99149.45
2018-04-18T00:16:41.782Z,99154.16
2018-04-18T00:17:13.363Z,99152.88
2018-04-18T00:17:44.941Z,99158.02
2018-04-18T00:18:16.532Z,99155.45
2018-04-18T00:18:48.122Z,99153.32
2018-04-18T00:19:19.730Z,99150.34
2018-04-18T00:19:51.342Z,99152.47
2018-04-18T00:20:22.945Z,99151.19
2018-04-18T00:20:54.590Z,99151.20
2018-04-18T00:21:26.216Z,99156.73
2018-04-18T00:21:57.910Z,99152.91
2018-04-18T00:22:29.523Z,99152.89
2018-04-18T00:23:01.125Z,99156.73
2018-04-18T00:23:32.696Z,99148.63
2018-04-18T00:24:04.278Z,99153.74
2018-04-18T00:24:35.858Z,99150.33
2018-04-18T00:25:07.462Z,99158.03
2018-04-18T00:25:39.076Z,99152.49
2018-04-18T00:26:10.667Z,99154.59
2018-04-18T00:26:42.269Z,99155.05
2018-04-18T00:27:13.873Z,99152.48
2018-04-18T00:27:45.483Z,99149.08
2018-04-18T00:28:17.066Z,99152.92
2018-04-18T00:28:48.650Z,99152.92
2018-04-18T00:29:20.234Z,99154.17
2018-04-18T00:29:51.813Z,99159.28
2018-04-18T00:30:23.390Z,99156.72
2018-04-18T00:30:54.997Z,99157.60
2018-04-18T00:31:26.582Z,99157.60
2018-04-18T00:31:58.226Z,99163.56
2018-04-18T00:32:29.830Z,99164.41
2018-04-18T00:33:01.434Z,99160.59
2018-04-18T00:33:33.094Z,99163.16
2018-04-18T00:34:04.678Z,99157.61
2018-04-18T00:34:36.255Z,99161.88
2018-04-18T00:35:07.829Z,99160.17
2018-04-18T00:35:39.429Z,99157.19
2018-04-18T00:36:11.013Z,99157.63
2018-04-18T00:36:42.614Z,99158.05
2018-04-18T00:37:14.226Z,99159.33
2018-04-18T00:37:45.814Z,99161.02
2018-04-18T00:38:17.461Z,99161.45
2018-04-18T00:38:49.090Z,99161.45
2018-04-18T00:39:20.678Z,99159.73
2018-04-18T00:39:52.282Z,99164.44
2018-04-18T00:40:23.856Z,99167.42
2018-04-18T00:40:55.428Z,99164.01
2018-04-18T00:41:27.019Z,99161.45
2018-04-18T00:41:58.630Z,99166.99
2018-04-18T00:42:30.274Z,99169.55
2018-04-18T00:43:01.902Z,99149.58
2018-04-18T00:43:33.516Z,99168.26
2018-04-18T00:44:05.114Z,99167.83
2018-04-18T00:44:36.705Z,99164.03
2018-04-18T00:45:08.286Z,99164.45
2018-04-18T00:45:39.883Z,99164.88
2018-04-18T00:46:11.469Z,99170.41
2018-04-18T00:46:43.050Z,99171.69
2018-04-18T00:47:14.628Z,99168.28
2018-04-18T00:47:46.272Z,99165.73
2018-04-18T00:48:17.858Z,99144.91
2018-04-18T00:48:49.448Z,99171.27
2018-04-18T00:49:21.033Z,99166.14
2018-04-18T00:49:52.637Z,99166.14
2018-04-18T00:50:24.241Z,99169.57
2018-04-18T00:50:55.846Z,99171.28
2018-04-18T00:51:27.436Z,99170.00
2018-04-18T00:51:59.042Z,99167.85
2018-04-18T00:52:30.636Z,99135.19
2018-04-18T00:53:02.258Z,99168.28
2018-04-18T00:53:33.852Z,99171.27
2018-04-18T00:54:05.425Z,99177.67
2018-04-18T00:54:37.006Z,99169.14
2018-04-18T00:55:08.596Z,99167.47
2018-04-18T00:55:40.206Z,99173.86
2018-04-18T00:56:11.810Z,99173.83
2018-04-18T00:56:43.462Z,99175.11
2018-04-18T00:57:15.042Z,99168.33
2018-04-18T00:57:46.650Z,99166.19
2018-04-18T00:58:18.262Z,99167.02
2018-04-18T00:58:49.870Z,99176.41
2018-04-18T00:59:21.622Z,99167.89
2018-04-18T00:59:53.216Z,99171.30
2018-04-18T01:00:24.801Z,99173.43
2018-04-18T01:00:56.406Z,99167.47
2018-04-18T01:01:27.998Z,99170.87
2018-04-18T01:01:59.608Z,99167.02
2018-04-18T01:02:31.186Z,99165.73
2018-04-18T01:03:02.786Z,99165.34
2018-04-18T01:03:34.381Z,99170.00
2018-04-18T01:04:05.962Z,99164.46
2018-04-18T01:04:37.608Z,99165.73
2018-04-18T01:05:09.190Z,99170.00
2018-04-18T01:05:40.834Z,99165.31
2018-04-18T01:06:12.462Z,99171.73
2018-04-18T01:06:44.061Z,99168.72
2018-04-18T01:07:15.636Z,99170.42
2018-04-18T01:07:47.237Z,99170.84
2018-04-18T01:08:18.822Z,99173.86
2018-04-18T01:08:50.429Z,99167.44
2018-04-18T01:09:22.033Z,99172.55
2018-04-18T01:09:53.625Z,99166.19
2018-04-18T01:10:25.242Z,99171.70
2018-04-18T01:10:56.857Z,99173.84
2018-04-18T01:11:28.456Z,99174.23
2018-04-18T01:12:00.070Z,99174.24
2018-04-18T01:12:31.649Z,99173.83
2018-04-18T01:13:03.249Z,99170.41
2018-04-18T01:13:34.833Z,99170.84
2018-04-18T01:14:06.413Z,99174.67
2018-04-18T01:14:38.029Z,99164.89
2018-04-18T01:15:09.610Z,99168.73
2018-04-18T01:15:41.266Z,99167.00
2018-04-18T01:16:12.875Z,99178.94
2018-04-18T01:16:44.468Z,99172.97
2018-04-18T01:17:16.037Z,99170.84
2018-04-18T01:17:47.646Z,99167.44
2018-04-18T01:18:19.249Z,99166.12
2018-04-18T01:18:50.827Z,99166.98
2018-04-18T01:19:22.406Z,99167.81
2018-04-18T01:19:53.990Z,99172.93
2018-04-18T01:20:25.602Z,99167.82
2018-04-18T01:20:57.229Z,99169.55
2018-04-18T01:21:28.820Z,99165.29
2018-04-18T01:22:00.401Z,99166.56
2018-04-18T01:22:32.008Z,99166.14
2018-04-18T01:23:03.614Z,99169.13
2018-04-18T01:23:35.195Z,99165.72
2018-04-18T01:24:06.794Z,99168.27
2018-04-18T01:24:38.373Z,99169.11
2018-04-18T01:25:09.955Z,99165.72
2018-04-18T01:25:41.562Z,99163.59
2018-04-18T01:26:13.157Z,99161.03
2018-04-18T01:26:44.770Z,99158.88
2018-04-18T01:27:16.358Z,99166.95
2018-04-18T01:27:47.943Z,99158.00
2018-04-18T01:28:19.583Z,99161.84
2018-04-18T01:28:51.170Z,99159.71
2018-04-18T01:29:22.777Z,99160.98
2018-04-18T01:29:54.348Z,99163.54
2018-04-18T01:30:25.950Z,99160.98
2018-04-18T01:30:57.530Z,99156.30
2018-04-18T01:31:29.134Z,99153.75
2018-04-18T01:32:00.741Z,99162.29
2018-04-18T01:32:32.322Z,99162.72
2018-04-18T01:33:03.908Z,99154.20
2018-04-18T01:33:35.534Z,99157.61
2018-04-18T01:34:07.208Z,99153.74
2018-04-18T01:34:38.791Z,99161.86
2018-04-18T01:35:10.437Z,99160.16
2018-04-18T01:35:42.013Z,99155.90
2018-04-18T01:36:13.607Z,99156.33
2018-04-18T01:36:45.228Z,99156.75
2018-04-18T01:37:16.820Z,99155.87
2018-04-18T01:37:48.401Z,99160.16
2018-04-18T01:38:20.038Z,99160.56
2018-04-18T01:38:51.632Z,99166.09
2018-04-18T01:39:23.214Z,99161.43
2018-04-18T01:39:54.784Z,99164.81
2018-04-18T01:40:26.366Z,99166.95
2018-04-18T01:40:57.948Z,99170.78
2018-04-18T01:41:29.540Z,99167.80
2018-04-18T01:42:01.120Z,99169.08
2018-04-18T01:42:32.734Z,99166.12
2018-04-18T01:43:04.318Z,99170.38
2018-04-18T01:43:35.942Z,99169.53
2018-04-18T01:44:07.527Z,99172.51
2018-04-18T01:44:39.122Z,99169.53
2018-04-18T01:45:10.742Z,99169.11
2018-04-18T01:45:42.336Z,99166.99
2018-04-18T01:46:13.932Z,99172.06
2018-04-18T01:46:45.537Z,99173.77
2018-04-18T01:47:17.123Z,99169.50
2018-04-18T01:47:48.712Z,99172.09
2018-04-18T01:48:20.354Z,99168.25
2018-04-18T01:48:52.006Z,99169.95
2018-04-18T01:49:23.617Z,99168.67
2018-04-18T01:49:55.212Z,99169.98
2018-04-18T01:50:26.785Z,99174.64
2018-04-18T01:50:58.369Z,99172.93
2018-04-18T01:51:29.961Z,99169.55
2018-04-18T01:52:01.573Z,99172.52
2018-04-18T01:52:33.172Z,99174.23
2018-04-18T01:53:04.778Z,99172.95
2018-04-18T01:53:36.373Z,99168.71
2018-04-18T01:54:08.018Z,99172.52
2018-04-18T01:54:39.598Z,99174.65
2018-04-18T01:55:11.202Z,99172.95
2018-04-18T01:55:42.819Z,99169.55
2018-04-18T01:56:14.431Z,99172.11
2018-04-18T01:56:46.023Z,99175.09
2018-04-18T01:57:17.634Z,99173.81
2018-04-18T01:57:49.246Z,99171.24
2018-04-18T01:58:20.830Z,99170.42
2018-04-18T01:58:52.410Z,99169.55
2018-04-18T01:59:24.033Z,99174.25
2018-04-18T01:59:55.590Z,99169.98
2018-04-18T02:00:27.200Z,99169.16
2018-04-18T02:00:58.809Z,99167.44
2018-04-18T02:01:30.385Z,99167.44
2018-04-18T02:02:01.990Z,99167.89
2018-04-18T02:02:33.604Z,99166.60
2018-04-18T02:03:05.200Z,99163.62
2018-04-18T02:03:36.806Z,99160.21
2018-04-18T02:04:08.401Z,99165.33
2018-04-18T02:04:41.516Z,99161.92
2018-04-18T02:05:13.101Z,99160.22
2018-04-18T02:05:44.678Z,99159.81
2018-04-18T02:06:16.260Z,99160.66
2018-04-18T02:06:47.842Z,99157.25
2018-04-18T02:07:19.418Z,99158.96
2018-04-18T02:07:50.984Z,99160.66
2018-04-18T02:08:22.584Z,99160.23
2018-04-18T02:08:54.192Z,99158.53
2018-04-18T02:09:25.775Z,99159.82
2018-04-18T02:09:57.394Z,99155.98
2018-04-18T02:10:28.961Z,99167.49
2018-04-18T02:11:00.539Z,99154.28
2018-04-18T02:11:32.121Z,99158.98
2018-04-18T02:12:03.731Z,99161.97
2018-04-18T02:12:35.300Z,99165.79
2018-04-18T02:13:06.893Z,99164.52
2018-04-18T02:13:38.473Z,99166.23
2018-04-18T02:14:10.126Z,99166.65
2018-04-18T02:14:41.733Z,99166.23
2018-04-18T02:15:13.305Z,99164.97
2018-04-18T02:15:44.914Z,99165.39
2018-04-18T02:16:16.502Z,99167.92
2018-04-18T02:16:48.091Z,99170.50
2018-04-18T02:17:19.697Z,99164.95
2018-04-18T02:17:51.287Z,99173.91
2018-04-18T02:18:22.881Z,99172.20
2018-04-18T02:18:54.453Z,99173.05
2018-04-18T02:19:26.025Z,99170.06
2018-04-18T02:19:57.625Z,99179.03
2018-04-18T02:20:29.206Z,99175.63
2018-04-18T02:21:00.830Z,99177.30
2018-04-18T02:21:32.428Z,99175.63
2018-04-18T02:22:04.010Z,99181.58
2018-04-18T02:22:35.610Z,99184.14
2018-04-18T02:23:07.227Z,99184.57
2018-04-18T02:23:38.804Z,99185.84
2018-04-18T02:24:10.426Z,99185.84
2018-04-18T02:24:42.006Z,99187.13
2018-04-18T02:25:13.605Z,99189.67
2018-04-18T02:25:45.190Z,99186.69
2018-04-18T02:26:16.785Z,99186.69
2018-04-18T02:26:48.357Z,99189.69
2018-04-18T02:27:19.928Z,99190.11
2018-04-18T02:27:51.507Z,99193.09
2018-04-18T02:28:23.120Z,99196.50
2018-04-18T02:28:54.728Z,99195.22
2018-04-18T02:29:26.339Z,99189.25
2018-04-18T02:29:57.955Z,99191.81
2018-04-18T02:30:29.529Z,99186.70
2018-04-18T02:31:01.131Z,99190.53
2018-04-18T02:31:32.712Z,99188.00
2018-04-18T02:32:04.330Z,99193.96
2018-04-18T02:32:35.918Z,99196.09
2018-04-18T02:33:07.525Z,99192.25
2018-04-18T02:33:39.130Z,99194.81
2018-04-18T02:34:10.720Z,99199.06
2018-04-18T02:34:42.318Z,99193.52
2018-04-18T02:35:13.935Z,99198.21
2018-04-18T02:35:45.545Z,99196.92
2018-04-18T02:36:17.158Z,99193.55
2018-04-18T02:36:48.760Z,99195.65
2018-04-18T02:37:20.342Z,99196.50
2018-04-18T02:37:51.946Z,99203.74
2018-04-18T02:38:23.526Z,99204.17
2018-04-18T02:38:55.129Z,99202.45
2018-04-18T02:39:26.736Z,99200.74
2018-04-18T02:39:58.349Z,99206.28
2018-04-18T02:40:29.958Z,99206.28
2018-04-18T02:41:01.532Z,99209.26
2018-04-18T02:41:33.185Z,99210.55
2018-04-18T02:42:04.782Z,99204.58
2018-04-18T02:42:36.372Z,99211.80
2018-04-18T02:43:08.009Z,99212.22
2018-04-18T02:43:39.614Z,99212.20
2018-04-18T02:44:11.199Z,99213.91
2018-04-18T02:44:42.806Z,99213.06
2018-04-18T02:45:14.390Z,99206.65
2018-04-18T02:45:45.990Z,99210.47
2018-04-18T02:46:17.627Z,99215.98
2018-04-18T02:46:49.199Z,99215.15
2018-04-18T02:47:20.789Z,99209.61
2018-04-18T02:47:52.366Z,99215.97
2018-04-18T02:48:23.951Z,99217.69
2018-04-18T02:48:55.563Z,99210.88
2018-04-18T02:49:27.176Z,99217.66
2018-04-18T02:49:58.793Z,99217.27
2018-04-18T02:50:30.418Z,99211.28
2018-04-18T02:51:02.024Z,99213.40
2018-04-18T02:51:33.651Z,99213.83
2018-04-18T02:52:05.257Z,99206.56
2018-04-18T02:52:36.846Z,99207.41
2018-04-18T02:53:08.466Z,99209.57
2018-04-18T02:53:40.051Z,99202.31
2018-04-18T02:54:11.646Z,99209.98
2018-04-18T02:54:43.255Z,99206.55
2018-04-18T02:55:14.851Z,99201.42
2018-04-18T02:55:46.461Z,99205.26
2018-04-18T02:56:18.055Z,99203.13
2018-04-18T02:56:49.655Z,99201.00
2018-04-18T02:57:21.310Z,99200.14
2018-04-18T02:57:52.880Z,99195.02
2018-04-18T02:58:24.470Z,99193.73
2018-04-18T02:58:56.041Z,99196.27
2018-04-18T02:59:27.642Z,99194.59
2018-04-18T02:59:59.234Z,99197.95
2018-04-18T03:00:30.834Z,99190.72
2018-04-18T03:01:02.436Z,99193.70
2018-04-18T03:01:34.032Z,99197.52
2018-04-18T03:02:05.639Z,99191.95
2018-04-18T03:02:37.296Z,99192.83
2018-04-18T03:03:08.890Z,99196.25
2018-04-18T03:03:40.507Z,99188.58
2018-04-18T03:04:12.100Z,99188.99
2018-04-18T03:04:43.686Z,99194.52
2018-04-18T03:05:15.290Z,99190.23
2018-04-18T03:05:46.907Z,99188.11
2018-04-18T03:06:18.490Z,99197.06
2018-04-18T03:06:50.094Z,99191.53
2018-04-18T03:07:21.682Z,99198.78
2018-04-18T03:07:53.251Z,99192.39
2018-04-18T03:08:24.867Z,99200.89
2018-04-18T03:08:56.479Z,99196.21
2018-04-18T03:09:28.066Z,99200.48
2018-04-18T03:09:59.632Z,99203.88
2018-04-18T03:10:31.224Z,99205.59
2018-04-18T03:11:02.813Z,99205.16
2018-04-18T03:11:34.414Z,99207.30
2018-04-18T03:12:06.009Z,99211.56
2018-04-18T03:12:37.604Z,99204.75
2018-04-18T03:13:09.270Z,99206.91
2018-04-18T03:13:40.846Z,99189.92
2018-04-18T03:14:12.413Z,99211.16
2018-04-18T03:14:44.018Z,99206.05
2018-04-18T03:15:15.603Z,99212.03
2018-04-18T03:15:47.202Z,99209.49
2018-04-18T03:16:18.782Z,99211.19
2018-04-18T03:16:50.358Z,99211.64
2018-04-18T03:17:21.962Z,99208.65
2018-04-18T03:17:53.550Z,99203.53
2018-04-18T03:18:25.180Z,99203.97
2018-04-18T03:18:56.785Z,99206.55
2018-04-18T03:19:28.394Z,99204.00
2018-04-18T03:19:59.984Z,99205.27
2018-04-18T03:20:31.618Z,99208.67
2018-04-18T03:21:03.201Z,99210.41
2018-04-18T03:21:34.780Z,99207.42
2018-04-18T03:22:06.360Z,99207.44
2018-04-18T03:22:37.952Z,99205.33
2018-04-18T03:23:09.538Z,99204.89
2018-04-18T03:23:41.146Z,99206.59
2018-04-18T03:24:12.734Z,99207.89
2018-04-18T03:24:44.310Z,99207.88
2018-04-18T03:25:15.880Z,99201.05
2018-04-18T03:25:47.477Z,99206.61
2018-04-18T03:26:19.079Z,99203.22
2018-04-18T03:26:50.672Z,99205.77
2018-04-18T03:27:22.257Z,99197.70
2018-04-18T03:27:53.838Z,99210.02
2018-04-18T03:28:25.442Z,99209.20
2018-04-18T03:28:57.045Z,99207.91
2018-04-18T03:29:28.645Z,99201.95
2018-04-18T03:30:00.223Z,99206.63
2018-04-18T03:30:31.825Z,99204.08
2018-04-18T03:31:03.470Z,99209.61
2018-04-18T03:31:35.062Z,99207.08
2018-04-18T03:32:06.643Z,99211.74
2018-04-18T03:32:38.225Z,99213.03
2018-04-18T03:33:09.826Z,99205.78
2018-04-18T03:33:41.405Z,99208.77
2018-04-18T03:34:12.976Z,99214.31
2018-04-18T03:34:44.554Z,99210.89
2018-04-18T03:35:16.145Z,99216.42
2018-04-18T03:35:47.740Z,99216.84
2018-04-18T03:36:19.308Z,99215.57
2018-04-18T03:36:50.897Z,99223.67
2018-04-18T03:37:22.488Z,99220.26
2018-04-18T03:37:54.081Z,99220.67
2018-04-18T03:38:25.665Z,99219.82
2018-04-18T03:38:57.242Z,99221.55
2018-04-18T03:39:28.849Z,99223.70
2018-04-18T03:40:00.461Z,99223.69
2018-04-18T03:40:32.047Z,99224.13
2018-04-18T03:41:03.630Z,99221.56
2018-04-18T03:41:35.276Z,99222.41
2018-04-18T03:42:06.887Z,99220.28
2018-04-18T03:42:38.480Z,99223.68
2018-04-18T03:43:10.066Z,99227.53
2018-04-18T03:43:41.669Z,99223.71
2018-04-18T03:44:13.250Z,99227.14
2018-04-18T03:44:44.824Z,99228.42
2018-04-18T03:45:16.401Z,99226.28
2018-04-18T03:45:47.976Z,99226.72
2018-04-18T03:46:19.620Z,99226.70
2018-04-18T03:46:51.267Z,99226.27
2018-04-18T03:47:22.858Z,99223.31
2018-04-18T03:47:54.451Z,99227.55
2018-04-18T03:48:26.026Z,99224.59
2018-04-18T03:48:57.592Z,99223.32
2018-04-18T03:49:29.185Z,99219.91
2018-04-18T03:50:00.795Z,99219.05
2018-04-18T03:50:32.381Z,99217.34
2018-04-18T03:51:04.038Z,99218.20
2018-04-18T03:51:35.666Z,99221.59
2018-04-18T03:52:07.265Z,99225.46
2018-04-18T03:52:38.918Z,99219.06
2018-04-18T03:53:10.488Z,99217.80
2018-04-18T03:53:42.061Z,99225.44
2018-04-18T03:54:13.661Z,99226.72
2018-04-18T03:54:45.228Z,99225.04
2018-04-18T03:55:16.820Z,99222.91
2018-04-18T03:55:48.422Z,99222.88
2018-04-18T03:56:20.010Z,99224.61
2018-04-18T03:56:51.594Z,99223.32
2018-04-18T03:57:23.246Z,99223.75
2018-04-18T03:57:54.835Z,99223.75
2018-04-18T03:58:26.442Z,99227.16
2018-04-18T03:58:58.023Z,99224.19
2018-04-18T03:59:29.649Z,99229.28
2018-04-18T04:00:01.254Z,99226.32
2018-04-18T04:00:32.856Z,99227.17
2018-04-18T04:01:04.461Z,99225.05
2018-04-18T04:01:36.037Z,99229.70
2018-04-18T04:02:07.614Z,99224.59
2018-04-18T04:02:39.389Z,99225.46
2018-04-18T04:03:11.010Z,99226.33
2018-04-18T04:03:42.598Z,99230.55
2018-04-18T04:04:14.198Z,99230.16
2018-04-18T04:04:45.798Z,99224.19
2018-04-18T04:05:27.508Z,99225.88
2018-04-18T04:05:59.568Z,99227.16
2018-04-18T04:06:31.178Z,99231.00
2018-04-18T04:07:02.782Z,99234.83
2018-04-18T04:07:34.364Z,99230.58
2018-04-18T04:08:05.995Z,99230.56
2018-04-18T04:08:37.569Z,99228.02
2018-04-18T04:09:09.170Z,99234.41
2018-04-18T04:09:40.766Z,99229.31
2018-04-18T04:10:12.354Z,99223.32
2018-04-18T04:10:43.936Z,99232.27
2018-04-18T04:11:15.502Z,99229.72
2018-04-18T04:11:47.089Z,99228.89
2018-04-18T04:12:18.685Z,99233.56
2018-04-18T04:12:50.265Z,99228.88
2018-04-18T04:13:21.906Z,99231.03
2018-04-18T04:13:53.509Z,99231.86
2018-04-18T04:14:25.120Z,99234.41
2018-04-18T04:14:56.717Z,99231.44
2018-04-18T04:15:28.318Z,99230.98
2018-04-18T04:15:59.896Z,99233.99
2018-04-18T04:16:31.552Z,99230.16
2018-04-18T04:17:03.124Z,99231.86
2018-04-18T04:17:34.708Z,99234.00
2018-04-18T04:18:06.315Z,99230.14
2018-04-18T04:18:37.908Z,99231.41
2018-04-18T04:19:09.533Z,99233.55
2018-04-18T04:19:41.118Z,99226.73
2018-04-18T04:20:12.720Z,99230.58
2018-04-18T04:20:44.339Z,99228.03
2018-04-18T04:21:16.044Z,99232.29
2018-04-18T04:21:47.634Z,99232.72
2018-04-18T04:22:19.217Z,99231.84
2018-04-18T04:22:50.795Z,99227.14
2018-04-18T04:23:22.397Z,99228.00
2018-04-18T04:23:54.001Z,99232.69
2018-04-18T04:24:25.612Z,99234.38
2018-04-18T04:24:57.200Z,99235.25
2018-04-18T04:25:28.783Z,99232.25
2018-04-18T04:26:00.352Z,99233.94
2018-04-18T04:26:31.941Z,99231.80
2018-04-18T04:27:03.554Z,99235.60
2018-04-18T04:27:35.135Z,99238.13
2018-04-18T04:28:06.786Z,99233.00
2018-04-18T04:28:38.398Z,99241.55
2018-04-18T04:29:09.990Z,99239.84
2018-04-18T04:29:41.569Z,99238.14
2018-04-18T04:30:13.169Z,99237.70
2018-04-18T04:30:44.775Z,99241.09
2018-04-18T04:31:16.381Z,99237.28
2018-04-18T04:31:47.986Z,99242.37
2018-04-18T04:32:19.592Z,99241.52
2018-04-18T04:32:51.236Z,99244.94
2018-04-18T04:33:22.809Z,99247.91
2018-04-18T04:33:54.406Z,99247.49
2018-04-18T04:34:26.040Z,99250.46
2018-04-18T04:34:57.642Z,99246.63
2018-04-18T04:35:29.241Z,99247.46
2018-04-18T04:36:00.847Z,99246.17
2018-04-18T04:36:32.446Z,99252.55
2018-04-18T04:37:04.084Z,99246.57
2018-04-18T04:37:35.669Z,99246.17
2018-04-18T04:38:07.304Z,99249.14
2018-04-18T04:38:38.909Z,99252.96
2018-04-18T04:39:10.490Z,99250.82
2018-04-18T04:39:42.106Z,99250.38
2018-04-18T04:40:13.702Z,99255.05
2018-04-18T04:40:45.289Z,99255.05
2018-04-18T04:41:16.868Z,99247.81
2018-04-18T04:41:48.470Z,99246.52
2018-04-18T04:42:20.108Z,99254.14
2018-04-18T04:42:51.713Z,99251.16
2018-04-18T04:43:23.357Z,99249.86
2018-04-18T04:43:54.938Z,99249.00
2018-04-18T04:44:26.526Z,99246.03
2018-04-18T04:44:58.150Z,99246.02
2018-04-18T04:45:29.722Z,99245.99
2018-04-18T04:46:01.306Z,99257.08
2018-04-18T04:46:32.889Z,99251.12
2018-04-18T04:47:04.473Z,99252.38
2018-04-18T04:47:36.079Z,99257.06
2018-04-18T04:48:07.690Z,99254.51
2018-04-18T04:48:39.318Z,99259.18
2018-04-18T04:49:10.892Z,99264.75
2018-04-18T04:49:42.474Z,99253.23
2018-04-18T04:50:14.050Z,99252.38
2018-04-18T04:50:45.634Z,99260.88
2018-04-18T04:51:17.230Z,99261.73
2018-04-18T04:51:48.880Z,99256.19
2018-04-18T04:52:20.463Z,99260.46
2018-04-18T04:52:52.028Z,99264.73
2018-04-18T04:53:23.610Z,99266.00
2018-04-18T04:53:55.176Z,99260.89
2018-04-18T04:54:26.744Z,99261.31
2018-04-18T04:54:58.390Z,99268.99
2018-04-18T04:55:30.024Z,99263.87
2018-04-18T04:56:01.605Z,99261.73
2018-04-18T04:56:33.196Z,99263.86
2018-04-18T04:57:04.779Z,99256.20
2018-04-18T04:57:36.378Z,99256.23
2018-04-18T04:58:07.985Z,99259.67
2018-04-18T04:58:39.576Z,99258.80
2018-04-18T04:59:11.168Z,99258.37
2018-04-18T04:59:42.796Z,99259.64
2018-04-18T05:00:14.422Z,99260.47
2018-04-18T05:00:46.014Z,99257.95
2018-04-18T05:01:17.594Z,99260.94
2018-04-18T05:01:49.174Z,99263.91
2018-04-18T05:02:20.787Z,99261.37
2018-04-18T05:02:52.429Z,99260.92
2018-04-18T05:03:24.014Z,99257.53
2018-04-18T05:03:55.618Z,99260.52
2018-04-18T05:04:27.189Z,99256.27
2018-04-18T05:04:58.816Z,99262.25
2018-04-18T05:05:30.385Z,99264.78
2018-04-18T05:06:01.962Z,99268.22
2018-04-18T05:06:33.550Z,99260.97
2018-04-18T05:07:05.165Z,99267.36
2018-04-18T05:07:36.830Z,99266.09
2018-04-18T05:08:08.404Z,99272.06
2018-04-18T05:08:39.972Z,99268.23
2018-04-18T05:09:11.581Z,99268.25
2018-04-18T05:09:43.164Z,99270.80
2018-04-18T05:10:14.775Z,99273.78
2018-04-18T05:10:46.411Z,99274.63
2018-04-18T05:11:18.023Z,99278.05
2018-04-18T05:12:00.661Z,99272.93
2018-04-18T05:12:32.262Z,99272.09
2018-04-18T05:13:03.842Z,99283.63
2018-04-18T05:13:35.430Z,99278.50
2018-04-18T05:14:07.025Z,99277.67
2018-04-18T05:14:38.625Z,99278.95
2018-04-18T05:15:10.210Z,99276.80
2018-04-18T05:15:41.835Z,99282.80
2018-04-18T05:16:13.433Z,99285.34
2018-04-18T05:16:45.090Z,99281.52
2018-04-18T05:17:16.660Z,99287.91
2018-04-18T05:17:48.242Z,99284.54
2018-04-18T05:18:19.846Z,99284.08
2018-04-18T05:18:51.454Z,99287.50
2018-04-18T05:19:23.066Z,99283.69
2018-04-18T05:19:54.660Z,99288.77
2018-04-18T05:20:26.267Z,99285.79
2018-04-18T05:20:57.844Z,99286.64
2018-04-18T05:21:29.445Z,99286.66
2018-04-18T05:22:01.090Z,99287.93
2018-04-18T05:22:32.685Z,99278.98
2018-04-18T05:23:04.282Z,99291.34
2018-04-18T05:23:35.902Z,99293.05
2018-04-18T05:24:07.488Z,99292.63
2018-04-18T05:24:39.142Z,99293.92
2018-04-18T05:25:10.746Z,99294.34
2018-04-18T05:25:42.365Z,99293.06
2018-04-18T05:26:13.944Z,99291.38
2018-04-18T05:26:45.529Z,99298.20
2018-04-18T05:27:17.123Z,99293.48
2018-04-18T05:27:48.723Z,99291.38
2018-04-18T05:28:20.329Z,99291.38
2018-04-18T05:28:51.979Z,99299.47
2018-04-18T05:29:23.564Z,99296.06
2018-04-18T05:29:55.173Z,99298.61
2018-04-18T05:30:26.780Z,99301.17
2018-04-18T05:30:58.427Z,99295.20
2018-04-18T05:31:29.980Z,99296.09
2018-04-18T05:32:01.548Z,99304.59
2018-04-18T05:32:33.131Z,99305.01
2018-04-18T05:33:04.725Z,99300.34
2018-04-18T05:33:36.306Z,99307.16
2018-04-18T05:34:07.919Z,99304.59
2018-04-18T05:34:39.498Z,99296.95
2018-04-18T05:35:11.098Z,99301.61
2018-04-18T05:35:42.706Z,99305.45
2018-04-18T05:36:14.313Z,99308.44
2018-04-18T05:36:45.900Z,99302.48
2018-04-18T05:37:17.487Z,99305.89
2018-04-18T05:37:49.070Z,99306.73
2018-04-18T05:38:20.654Z,99308.86
2018-04-18T05:38:52.233Z,99311.44
2018-04-18T05:39:23.917Z,99310.59
2018-04-18T05:39:55.524Z,99310.59
2018-04-18T05:40:27.110Z,99305.47
2018-04-18T05:40:58.688Z,99310.14
2018-04-18T05:41:30.265Z,99309.31
2018-04-18T05:42:01.856Z,99310.16
2018-04-18T05:42:33.467Z,99317.40
2018-04-18T05:43:05.077Z,99308.48
2018-04-18T05:43:36.661Z,99308.48
2018-04-18T05:44:08.242Z,99311.47
2018-04-18T05:44:39.877Z,99306.34
2018-04-18T05:45:11.487Z,99307.20
2018-04-18T05:45:43.114Z,99307.20
2018-04-18T05:46:14.691Z,99309.33
2018-04-18T05:46:46.295Z,99308.48
2018-04-18T05:47:17.865Z,99308.03
2018-04-18T05:47:49.461Z,99308.48
2018-04-18T05:48:21.066Z,99310.16
2018-04-18T05:48:52.641Z,99310.19
2018-04-18T05:49:24.248Z,99309.33
2018-04-18T05:49:55.818Z,99306.77
2018-04-18T05:50:27.417Z,99312.73
2018-04-18T05:50:58.990Z,99305.07
2018-04-18T05:51:30.591Z,99315.31
2018-04-18T05:52:02.199Z,99301.68
2018-04-18T05:52:33.786Z,99311.91
2018-04-18T05:53:05.390Z,99308.92
2018-04-18T05:53:36.997Z,99319.15
2018-04-18T05:54:08.633Z,99311.88
2018-04-18T05:54:40.226Z,99314.89
2018-04-18T05:55:11.814Z,99317.02
2018-04-18T05:55:43.398Z,99318.70
2018-04-18T05:56:14.997Z,99320.42
2018-04-18T05:56:46.582Z,99315.73
2018-04-18T05:57:18.167Z,99310.64
2018-04-18T05:57:49.760Z,99327.65
2018-04-18T05:58:21.336Z,99319.56
2018-04-18T05:58:52.980Z,99328.50
2018-04-18T05:59:24.578Z,99322.12
2018-04-18T05:59:56.166Z,99326.39
2018-04-18T06:00:27.776Z,99322.55
2018-04-18T06:00:59.358Z,99326.82
2018-04-18T06:01:30.957Z,99331.48
2018-04-18T06:02:02.563Z,99332.35
2018-04-18T06:02:34.160Z,99326.81
2018-04-18T06:03:05.792Z,99331.92
2018-04-18T06:03:37.400Z,99332.35
2018-04-18T06:04:09.015Z,99329.36
2018-04-18T06:04:40.626Z,99325.52
2018-04-18T06:05:12.208Z,99331.48
2018-04-18T06:05:43.801Z,99334.45
2018-04-18T06:06:15.420Z,99327.22
2018-04-18T06:06:46.978Z,99330.20
2018-04-18T06:07:18.563Z,99328.08
2018-04-18T06:07:50.154Z,99329.36
2018-04-18T06:08:21.767Z,99328.50
2018-04-18T06:08:53.332Z,99334.05
2018-04-18T06:09:24.935Z,99322.53
2018-04-18T06:09:56.508Z,99331.50
2018-04-18T06:10:28.114Z,99324.25
2018-04-18T06:10:59.729Z,99329.77
2018-04-18T06:11:31.337Z,99328.06